W K Kellogg Airport
KBTL : now visible

Airfield :











YOU CAN JOIN US ON...

 
LOGIN :

Register | Disclaimer

   EN    FR    IT 

 









Legend :    VFR   Marginal VFR   IFR   Intensive IFR   Very Intensive IFR
Visi :
Ceiling :
>= 8 km
>= 3000ft
5 to 8 km
1000 to 3000 ft
1500m to 5 km
500 to 1000 ft
800 to 1500m
200 to 500 ft
< 800m
< 200 ft
Symbols :   Thunderstorms  Fog  Heavy snow  Heavy precipitations  Wind > 20 kt






- Airport Elevation : 952 ft


KBTL - W K Kellogg

CURRENT METAR :
  • 081853Z VRB03KT 10SM CLR 21/07 A2970 RMK AO2 SLP053 T02060072

EXPIRED METARs :
  • 081753Z VRB05KT 10SM CLR 19/09 A2974 RMK AO2 SLP067 T01890094 10189 20078 58014
  • 081653Z VRB05KT 10SM CLR 17/11 A2976 RMK AO2 SLP076 T01670111

TAF KBTL
Valid from the 08 at 18:00 until the 09 at 18:00 UTC


081740Z 0818/0918 27008KT P6SM SCT120
FM082100 28009KT P6SM VCSH BKN120
FM090000 31010KT 4SM -SHRA BR OVC025
FM090600 30010KT P6SM BKN080
FM091400 29016G28KT P6SM BKN035



MET'MAP, your aeronautical weather chart ! - Copyright ORBIFLY December 2007 - Disclaimer

ORBIFLY MET'MAP TEAM :

Programming & Development : Alexandra Zaïnal
Concept & original design : Baudouin d'Aumeries
Assistance for programming : Marc-Olivier Méhu
Technical & hardware support : Manuel Goepfert

Contact : metmap@orbifly.com




SOURCES & CREDITS :

   NOAA       Earth
Advisory